Time;durP1;ratioP1;P1;durP2;ratioP2;P2;SDS_P1;SDS_P2;PMS_P1;PMS_P2;Temp;Humidity;BMP_temperature;BMP_pressure;BME280_temperature;BME280_humidity;BME280_pressure;Samples;Min_cycle;Max_cycle;Signal;HPM_P1;HPM_P2
2023/12/08 00:04:46;;;;;;;37.20;22.80;;;;;;;;;;10353160;28;20040;-73
2023/12/08 00:09:43;;;;;;;38.58;23.40;;;;;;;;;;10353211;28;20043;-71
2023/12/08 00:14:39;;;;;;;38.55;22.23;;;;;;;;;;10340798;28;20044;-71
2023/12/08 00:19:35;;;;;;;37.10;22.08;;;;;;;;;;10335881;28;20527;-72
2023/12/08 00:24:33;;;;;;;36.30;22.48;;;;;;;;;;10344099;28;20075;-73
2023/12/08 00:29:29;;;;;;;39.42;22.52;;;;;;;;;;10343947;28;20044;-74
2023/12/08 00:34:26;;;;;;;38.33;22.27;;;;;;;;;;10350704;28;20094;-71
2023/12/08 00:39:22;;;;;;;44.88;24.02;;;;;;;;;;10342982;28;20145;-72
2023/12/08 00:44:19;;;;;;;41.92;24.35;;;;;;;;;;10338848;28;20064;-73
2023/12/08 00:49:15;;;;;;;42.50;22.75;;;;;;;;;;10347635;28;20107;-70
2023/12/08 00:54:13;;;;;;;36.05;22.17;;;;;;;;;;10338205;28;20144;-71
2023/12/08 00:59:09;;;;;;;45.25;23.98;;;;;;;;;;10336477;28;20075;-72
2023/12/08 01:04:06;;;;;;;42.15;24.15;;;;;;;;;;10340279;28;20062;-72
2023/12/08 01:09:03;;;;;;;45.75;25.05;;;;;;;;;;10342996;28;20066;-71
2023/12/08 01:13:59;;;;;;;40.95;24.77;;;;;;;;;;10351979;28;20035;-72
2023/12/08 01:18:56;;;;;;;38.17;24.00;;;;;;;;;;10341426;28;20032;-71
2023/12/08 01:23:52;;;;;;;39.72;22.75;;;;;;;;;;10336771;28;20053;-72
2023/12/08 01:28:48;;;;;;;35.33;22.35;;;;;;;;;;10338211;28;20062;-74
2023/12/08 01:33:45;;;;;;;34.13;20.75;;;;;;;;;;10348513;28;20056;-72
2023/12/08 01:38:43;;;;;;;36.08;21.35;;;;;;;;;;10349462;28;20040;-73
2023/12/08 01:43:40;;;;;;;41.58;23.50;;;;;;;;;;10342320;28;20419;-73
2023/12/08 01:48:36;;;;;;;34.63;20.70;;;;;;;;;;10342404;28;20041;-72
2023/12/08 01:53:33;;;;;;;30.85;20.45;;;;;;;;;;10323893;28;20486;-69
2023/12/08 01:58:30;;;;;;;29.83;20.38;;;;;;;;;;10338375;28;20037;-69
2023/12/08 02:03:26;;;;;;;35.25;21.38;;;;;;;;;;10341659;28;20040;-71
2023/12/08 02:08:23;;;;;;;35.15;20.50;;;;;;;;;;10342778;28;20093;-70
2023/12/08 02:13:23;;;;;;;33.67;21.27;;;;;;;;;;10360737;28;20101;-71
2023/12/08 02:18:20;;;;;;;34.80;21.13;;;;;;;;;;10346208;28;20058;-71
2023/12/08 02:23:17;;;;;;;31.90;20.48;;;;;;;;;;10341298;28;20055;-71
2023/12/08 02:28:13;;;;;;;40.08;22.67;;;;;;;;;;10345322;28;20082;-70
2023/12/08 02:33:17;;;;;;;36.03;21.40;;;;;;;;;;10350594;28;20040;-70
2023/12/08 02:38:20;;;;;;;36.60;21.88;;;;;;;;;;10344524;28;20059;-70
2023/12/08 02:43:17;;;;;;;37.22;21.08;;;;;;;;;;10338684;28;20050;-68
2023/12/08 02:48:14;;;;;;;34.42;20.48;;;;;;;;;;10340683;28;20538;-70
2023/12/08 02:53:10;;;;;;;36.22;20.65;;;;;;;;;;10331789;28;20047;-70
2023/12/08 02:58:07;;;;;;;39.97;21.42;;;;;;;;;;10354719;28;20509;-72
2023/12/08 03:03:03;;;;;;;39.38;23.17;;;;;;;;;;10345773;28;20051;-69
2023/12/08 03:08:00;;;;;;;36.47;21.52;;;;;;;;;;10347009;28;20517;-69
2023/12/08 03:12:56;;;;;;;35.97;20.88;;;;;;;;;;10330678;28;20044;-69
2023/12/08 03:17:53;;;;;;;36.10;20.48;;;;;;;;;;10347423;28;20601;-70
2023/12/08 03:22:49;;;;;;;31.52;19.48;;;;;;;;;;10337128;28;20494;-69
2023/12/08 03:27:46;;;;;;;31.45;19.92;;;;;;;;;;10352579;28;20041;-70
2023/12/08 03:32:42;;;;;;;34.35;20.40;;;;;;;;;;10343215;28;20500;-70
2023/12/08 03:37:38;;;;;;;29.55;19.42;;;;;;;;;;10339794;28;20136;-69
2023/12/08 03:42:36;;;;;;;28.50;19.65;;;;;;;;;;10348031;28;20043;-73
2023/12/08 03:47:33;;;;;;;29.27;19.00;;;;;;;;;;10342024;28;20066;-74
2023/12/08 03:52:30;;;;;;;33.70;20.58;;;;;;;;;;10339349;28;20650;-73
2023/12/08 03:57:26;;;;;;;30.75;19.92;;;;;;;;;;10346797;28;20055;-72
2023/12/08 04:02:23;;;;;;;28.58;20.38;;;;;;;;;;10349522;28;20044;-71
2023/12/08 04:07:20;;;;;;;32.00;19.70;;;;;;;;;;10340093;28;20131;-73
2023/12/08 04:12:16;;;;;;;27.38;18.77;;;;;;;;;;10343462;28;20634;-72
2023/12/08 04:17:13;;;;;;;27.83;18.15;;;;;;;;;;10349811;28;20056;-73
2023/12/08 04:22:09;;;;;;;29.27;18.13;;;;;;;;;;10342786;28;20049;-73
2023/12/08 04:27:05;;;;;;;29.15;18.67;;;;;;;;;;10356221;27;20052;-73
2023/12/08 04:32:02;;;;;;;27.42;18.10;;;;;;;;;;10341588;28;20036;-73
2023/12/08 04:36:58;;;;;;;29.10;16.98;;;;;;;;;;10333146;28;20037;-73
2023/12/08 04:41:55;;;;;;;24.10;16.17;;;;;;;;;;10340465;28;20039;-73
2023/12/08 04:46:51;;;;;;;25.92;16.33;;;;;;;;;;10335762;28;20572;-70
2023/12/08 04:51:48;;;;;;;22.90;15.50;;;;;;;;;;10342802;28;20613;-71
2023/12/08 04:56:44;;;;;;;29.33;16.65;;;;;;;;;;10350329;28;20623;-71
2023/12/08 05:01:40;;;;;;;22.25;14.82;;;;;;;;;;10347027;28;20048;-73
2023/12/08 05:06:37;;;;;;;24.52;15.95;;;;;;;;;;10370698;27;20043;-73
2023/12/08 05:11:33;;;;;;;21.27;15.75;;;;;;;;;;10334172;28;20040;-71
2023/12/08 05:16:30;;;;;;;28.08;17.45;;;;;;;;;;10341636;28;20036;-70
2023/12/08 05:21:26;;;;;;;21.88;15.57;;;;;;;;;;10352383;28;20039;-71
2023/12/08 05:26:25;;;;;;;26.92;16.25;;;;;;;;;;10356089;27;20654;-72
2023/12/08 05:31:21;;;;;;;21.67;16.02;;;;;;;;;;10344397;28;20098;-72
2023/12/08 05:36:18;;;;;;;24.98;16.48;;;;;;;;;;10338270;28;20044;-73
2023/12/08 05:41:14;;;;;;;29.85;17.15;;;;;;;;;;10328874;28;20159;-72
2023/12/08 05:46:10;;;;;;;24.95;15.13;;;;;;;;;;10343457;28;20047;-75
2023/12/08 05:51:07;;;;;;;25.83;17.38;;;;;;;;;;10339519;28;20051;-71
2023/12/08 05:56:03;;;;;;;29.63;18.02;;;;;;;;;;10344266;27;20580;-73
2023/12/08 06:01:00;;;;;;;26.35;17.70;;;;;;;;;;10334218;28;20070;-76
2023/12/08 06:05:57;;;;;;;25.88;17.73;;;;;;;;;;10340781;28;20939;-76
2023/12/08 06:10:53;;;;;;;26.27;17.35;;;;;;;;;;10338763;28;20040;-76
2023/12/08 06:15:50;;;;;;;35.05;20.60;;;;;;;;;;10338374;28;20056;-75
2023/12/08 06:49:41;;;;;;;;;;;;;;;;;;;;;
2023/12/08 07:00:36;;;;;;;35.90;22.08;;;;;;;;;;10426123;22;20048;-76
2023/12/08 07:05:57;;;;;;;;;;;;;;;;;;;;;
2023/12/08 07:35:47;;;;;;;;;;;;;;;;;;;;;
2023/12/08 07:58:01;;;;;;;32.83;21.95;;;;;;;;;;10275488;28;20525;-77
2023/12/08 08:03:26;;;;;;;;;;;;;;;;;;;;;
2023/12/08 08:22:08;;;;;;;;;;;;;;;;;;;;;
2023/12/08 08:39:39;;;;;;;37.15;23.58;;;;;;;;;;9803575;29;20704;-76
2023/12/08 08:45:07;;;;;;;40.05;24.73;;;;;;;;;;9826319;29;20061;-76
2023/12/08 08:50:04;;;;;;;39.05;24.50;;;;;;;;;;9946059;29;20052;-76
2023/12/08 08:55:30;;;;;;;;;;;;;;;;;;;;;
2023/12/08 09:01:18;;;;;;;34.22;23.58;;;;;;;;;;9979085;28;20608;-75
2023/12/08 09:18:50;;;;;;;40.20;23.13;;;;;;;;;;10284446;28;20569;-76
2023/12/08 09:30:29;;;;;;;32.45;23.40;;;;;;;;;;10215327;28;20049;-76
2023/12/08 09:41:45;;;;;;;33.60;21.83;;;;;;;;;;10226196;28;20504;-76
2023/12/08 09:46:56;;;;;;;36.58;24.33;;;;;;;;;;10127431;22;20412;-75
2023/12/08 09:51:52;;;;;;;36.13;23.60;;;;;;;;;;10292811;28;20053;-76
2023/12/08 09:56:53;;;;;;;35.42;24.60;;;;;;;;;;10292409;28;20049;-76
2023/12/08 10:01:51;;;;;;;36.92;22.63;;;;;;;;;;10262345;28;20060;-76
2023/12/08 10:06:49;;;;;;;38.50;23.15;;;;;;;;;;10255972;28;20131;-75
2023/12/08 10:11:47;;;;;;;35.60;22.25;;;;;;;;;;10289322;28;20515;-76
2023/12/08 10:16:45;;;;;;;35.58;22.83;;;;;;;;;;10283750;28;20063;-75
2023/12/08 10:21:42;;;;;;;31.15;22.05;;;;;;;;;;10272200;28;20051;-76
2023/12/08 10:26:39;;;;;;;31.38;21.30;;;;;;;;;;10263415;28;20144;-75
2023/12/08 10:31:39;;;;;;;31.88;21.88;;;;;;;;;;10273784;28;20049;-75
2023/12/08 10:36:36;;;;;;;35.05;22.88;;;;;;;;;;10270037;28;20355;-76
2023/12/08 10:41:33;;;;;;;34.13;22.90;;;;;;;;;;10260302;28;20056;-75
2023/12/08 10:46:31;;;;;;;35.20;21.65;;;;;;;;;;10259315;28;20424;-76
2023/12/08 10:51:28;;;;;;;36.35;22.73;;;;;;;;;;10270172;28;20056;-76
2023/12/08 11:07:42;;;;;;;34.95;22.23;;;;;;;;;;10292179;28;21578;-76
2023/12/08 11:12:43;;;;;;;32.20;21.67;;;;;;;;;;10293076;28;20048;-76
2023/12/08 11:40:56;;;;;;;36.45;21.45;;;;;;;;;;10294606;28;20514;-75
2023/12/08 11:46:10;;;;;;;32.75;21.48;;;;;;;;;;10152029;28;20050;-76
2023/12/08 11:51:07;;;;;;;31.38;20.15;;;;;;;;;;10171084;28;20050;-75
2023/12/08 11:56:04;;;;;;;33.90;21.85;;;;;;;;;;10186820;28;20046;-74
2023/12/08 12:07:27;;;;;;;33.17;22.42;;;;;;;;;;10316730;28;20567;-76
2023/12/08 12:24:46;;;;;;;37.03;23.75;;;;;;;;;;10298805;28;20464;-75
2023/12/08 12:29:53;;;;;;;35.65;21.98;;;;;;;;;;10287790;28;20051;-75
2023/12/08 12:34:58;;;;;;;33.40;20.90;;;;;;;;;;10287500;28;20114;-75
2023/12/08 12:40:13;;;;;;;30.88;20.98;;;;;;;;;;10312942;28;20044;-75
2023/12/08 12:45:10;;;;;;;33.33;22.52;;;;;;;;;;10294067;28;20057;-75
2023/12/08 12:50:07;;;;;;;30.10;21.35;;;;;;;;;;10309677;28;20102;-75
2023/12/08 12:55:24;;;;;;;33.65;22.25;;;;;;;;;;10307324;28;20048;-74
2023/12/08 13:00:32;;;;;;;35.25;22.13;;;;;;;;;;10305445;28;20061;-75
2023/12/08 13:05:29;;;;;;;34.08;22.75;;;;;;;;;;10296318;28;20052;-75
2023/12/08 13:10:25;;;;;;;34.72;22.45;;;;;;;;;;10319739;28;20044;-75
2023/12/08 13:15:21;;;;;;;33.92;22.30;;;;;;;;;;10303006;28;20052;-74
2023/12/08 13:20:18;;;;;;;33.00;22.42;;;;;;;;;;10293551;28;20090;-76
2023/12/08 13:25:14;;;;;;;34.78;21.42;;;;;;;;;;10317608;28;20049;-74
2023/12/08 13:30:11;;;;;;;32.20;21.77;;;;;;;;;;10287587;28;20098;-74
2023/12/08 13:35:07;;;;;;;35.13;23.10;;;;;;;;;;10301930;28;20414;-75
2023/12/08 13:40:04;;;;;;;33.13;22.42;;;;;;;;;;10304375;28;20528;-75
2023/12/08 13:45:02;;;;;;;28.80;20.65;;;;;;;;;;10290064;28;20063;-75
2023/12/08 13:49:59;;;;;;;30.27;22.00;;;;;;;;;;10303287;28;20052;-74
2023/12/08 13:54:55;;;;;;;34.13;22.15;;;;;;;;;;10302102;28;20094;-75
2023/12/08 13:59:52;;;;;;;35.47;22.58;;;;;;;;;;10319525;28;20041;-75
2023/12/08 14:04:49;;;;;;;32.17;21.45;;;;;;;;;;10314443;28;20082;-75
2023/12/08 14:09:45;;;;;;;31.75;21.77;;;;;;;;;;10307271;28;20082;-74
2023/12/08 14:14:42;;;;;;;35.95;22.55;;;;;;;;;;10304974;28;20044;-75
2023/12/08 14:19:38;;;;;;;37.80;25.65;;;;;;;;;;10307142;28;20128;-74
2023/12/08 14:24:34;;;;;;;36.85;23.20;;;;;;;;;;10301732;28;20144;-74
2023/12/08 14:29:31;;;;;;;32.97;22.02;;;;;;;;;;10298620;28;20060;-74
2023/12/08 14:34:27;;;;;;;32.75;21.50;;;;;;;;;;10301744;28;20056;-74
2023/12/08 14:39:24;;;;;;;34.65;22.15;;;;;;;;;;10306623;28;20067;-73
2023/12/08 14:44:24;;;;;;;35.72;22.85;;;;;;;;;;10318102;28;20080;-74
2023/12/08 14:49:20;;;;;;;35.30;23.20;;;;;;;;;;10315213;28;20109;-75
2023/12/08 14:54:17;;;;;;;31.65;23.15;;;;;;;;;;10299672;28;20135;-74
2023/12/08 14:59:21;;;;;;;39.88;22.58;;;;;;;;;;10316256;28;20070;-74
2023/12/08 15:04:18;;;;;;;33.63;21.85;;;;;;;;;;10280877;28;20132;-74
2023/12/08 15:09:14;;;;;;;36.50;23.40;;;;;;;;;;10296481;28;20084;-74
2023/12/08 15:14:11;;;;;;;33.13;23.67;;;;;;;;;;10307988;28;20052;-74
2023/12/08 15:19:07;;;;;;;34.08;22.83;;;;;;;;;;10328810;28;20094;-74
2023/12/08 15:24:05;;;;;;;34.53;22.70;;;;;;;;;;10313608;28;20429;-74
2023/12/08 15:29:01;;;;;;;36.67;24.40;;;;;;;;;;10294063;28;20124;-73
2023/12/08 15:33:57;;;;;;;33.25;23.45;;;;;;;;;;10359123;28;20048;-73
2023/12/08 15:38:54;;;;;;;36.35;23.65;;;;;;;;;;10333304;28;20047;-74
2023/12/08 15:43:50;;;;;;;37.70;22.95;;;;;;;;;;10322316;28;20051;-74
2023/12/08 15:48:48;;;;;;;34.63;23.13;;;;;;;;;;10309602;28;20044;-74
2023/12/08 15:53:46;;;;;;;38.00;21.65;;;;;;;;;;10317881;28;20044;-74
2023/12/08 15:58:42;;;;;;;39.67;24.27;;;;;;;;;;10320548;28;20049;-74
2023/12/08 16:03:39;;;;;;;39.25;24.13;;;;;;;;;;10329453;28;20512;-72
2023/12/08 16:08:35;;;;;;;38.10;22.60;;;;;;;;;;10329421;28;20098;-73
2023/12/08 16:13:31;;;;;;;36.42;23.83;;;;;;;;;;10319813;28;20040;-72
2023/12/08 16:18:30;;;;;;;39.75;23.02;;;;;;;;;;10325138;28;20057;-73
2023/12/08 16:23:27;;;;;;;40.20;24.05;;;;;;;;;;10298380;28;20053;-72
2023/12/08 16:28:24;;;;;;;40.33;24.00;;;;;;;;;;10297273;28;20058;-73
2023/12/08 16:33:20;;;;;;;36.65;22.33;;;;;;;;;;10309015;28;20049;-73
2023/12/08 16:38:17;;;;;;;39.22;23.10;;;;;;;;;;10326626;28;20103;-73
2023/12/08 16:43:13;;;;;;;41.13;25.15;;;;;;;;;;10304810;28;20053;-74
2023/12/08 16:48:10;;;;;;;37.70;23.73;;;;;;;;;;10300455;28;20041;-75
2023/12/08 16:53:07;;;;;;;39.63;25.92;;;;;;;;;;10309747;28;20045;-73
2023/12/08 16:58:03;;;;;;;38.17;24.30;;;;;;;;;;10314342;28;20041;-74
2023/12/08 17:03:00;;;;;;;35.25;23.67;;;;;;;;;;10313694;28;20037;-74
2023/12/08 17:07:56;;;;;;;44.80;24.80;;;;;;;;;;10315889;28;20036;-74
2023/12/08 17:12:53;;;;;;;34.25;23.95;;;;;;;;;;10310083;28;20480;-74
2023/12/08 17:17:55;;;;;;;41.80;24.83;;;;;;;;;;10324884;22;20061;-74
2023/12/08 17:22:52;;;;;;;41.22;24.65;;;;;;;;;;10313236;28;20049;-74
2023/12/08 17:27:48;;;;;;;37.13;24.65;;;;;;;;;;10292057;28;20072;-75
2023/12/08 17:32:45;;;;;;;35.55;23.55;;;;;;;;;;10296216;28;20084;-74
2023/12/08 17:37:42;;;;;;;39.70;24.83;;;;;;;;;;10295161;28;20470;-74
2023/12/08 17:42:39;;;;;;;37.33;24.10;;;;;;;;;;10318335;28;20079;-73
2023/12/08 17:47:36;;;;;;;43.50;26.63;;;;;;;;;;10313828;28;20078;-74
2023/12/08 17:52:32;;;;;;;38.75;23.48;;;;;;;;;;10314505;28;20045;-73
2023/12/08 17:57:29;;;;;;;42.15;25.40;;;;;;;;;;10323442;28;20056;-74
2023/12/08 18:02:25;;;;;;;40.88;26.15;;;;;;;;;;10310917;28;20048;-73
2023/12/08 18:07:22;;;;;;;41.35;25.38;;;;;;;;;;10317448;28;20527;-75
2023/12/08 18:12:20;;;;;;;42.13;25.48;;;;;;;;;;10310388;28;20086;-74
2023/12/08 18:17:20;;;;;;;37.72;25.88;;;;;;;;;;10310360;28;20060;-75
2023/12/08 18:22:17;;;;;;;42.75;25.60;;;;;;;;;;10317324;28;20084;-73
2023/12/08 18:27:13;;;;;;;44.90;27.20;;;;;;;;;;10309137;28;20045;-74
2023/12/08 18:32:29;;;;;;;45.88;26.35;;;;;;;;;;10314635;28;20054;-74
2023/12/08 18:37:26;;;;;;;45.65;28.45;;;;;;;;;;10304842;28;20059;-73
2023/12/08 18:42:22;;;;;;;42.28;25.60;;;;;;;;;;10309333;28;20094;-75
2023/12/08 18:47:19;;;;;;;48.80;27.77;;;;;;;;;;10297720;28;20048;-73
2023/12/08 18:52:16;;;;;;;43.63;26.90;;;;;;;;;;10305428;28;20044;-74
2023/12/08 18:57:13;;;;;;;44.47;25.92;;;;;;;;;;10287392;28;20072;-75
2023/12/08 19:02:10;;;;;;;43.55;25.52;;;;;;;;;;10305131;28;20413;-73
2023/12/08 19:07:06;;;;;;;38.97;24.50;;;;;;;;;;10308788;28;20056;-73
2023/12/08 19:12:03;;;;;;;48.53;25.70;;;;;;;;;;10307294;28;20044;-73
2023/12/08 19:17:01;;;;;;;47.70;26.35;;;;;;;;;;10306784;28;20063;-73
2023/12/08 19:21:57;;;;;;;47.50;26.23;;;;;;;;;;10306377;28;20420;-72
2023/12/08 19:26:54;;;;;;;44.10;24.65;;;;;;;;;;10309172;28;20051;-73
2023/12/08 19:31:50;;;;;;;47.35;26.33;;;;;;;;;;10305014;28;20059;-73
2023/12/08 19:36:47;;;;;;;41.17;24.90;;;;;;;;;;10306387;28;20055;-73
2023/12/08 19:41:43;;;;;;;44.85;25.67;;;;;;;;;;10305501;28;20059;-74
2023/12/08 19:46:41;;;;;;;44.15;25.58;;;;;;;;;;10297625;28;20060;-74
2023/12/08 19:51:38;;;;;;;46.40;26.23;;;;;;;;;;10304150;28;20062;-74
2023/12/08 19:56:34;;;;;;;40.40;25.15;;;;;;;;;;10298424;28;20432;-73
2023/12/08 20:01:30;;;;;;;42.90;23.95;;;;;;;;;;10304633;28;20044;-73
2023/12/08 20:06:27;;;;;;;46.63;26.20;;;;;;;;;;10313480;28;20056;-72
2023/12/08 20:11:23;;;;;;;42.15;25.38;;;;;;;;;;10295231;28;20045;-72
2023/12/08 20:16:20;;;;;;;50.80;25.58;;;;;;;;;;10313226;28;20063;-72
2023/12/08 20:21:16;;;;;;;50.97;27.80;;;;;;;;;;10314711;28;20052;-72
2023/12/08 20:26:14;;;;;;;46.90;26.45;;;;;;;;;;10317624;28;20060;-72
2023/12/08 20:31:22;;;;;;;46.50;24.75;;;;;;;;;;10305105;28;20091;-72
2023/12/08 20:36:19;;;;;;;49.17;26.17;;;;;;;;;;10318492;28;20048;-72
2023/12/08 20:41:23;;;;;;;51.72;26.88;;;;;;;;;;10317941;28;20056;-72
2023/12/08 20:46:20;;;;;;;49.75;25.63;;;;;;;;;;10315951;28;20079;-72
2023/12/08 20:51:17;;;;;;;54.38;28.27;;;;;;;;;;10293856;28;20056;-72
2023/12/08 20:56:16;;;;;;;53.55;26.58;;;;;;;;;;10313243;28;20052;-72
2023/12/08 21:01:12;;;;;;;56.83;27.40;;;;;;;;;;10288989;28;20049;-72
2023/12/08 21:06:09;;;;;;;45.22;25.27;;;;;;;;;;10305485;28;20052;-71
2023/12/08 21:11:07;;;;;;;48.65;23.45;;;;;;;;;;10311222;28;20049;-72
2023/12/08 21:16:03;;;;;;;61.45;27.15;;;;;;;;;;10308761;28;20056;-73
2023/12/08 21:21:00;;;;;;;51.13;25.15;;;;;;;;;;10314058;28;20120;-72
2023/12/08 21:25:56;;;;;;;51.22;24.92;;;;;;;;;;10315151;28;20045;-72
2023/12/08 21:30:56;;;;;;;54.15;25.98;;;;;;;;;;10314856;28;20044;-72
2023/12/08 21:35:53;;;;;;;45.40;25.75;;;;;;;;;;10309613;28;20049;-72
2023/12/08 21:40:49;;;;;;;49.60;26.45;;;;;;;;;;10316622;28;20098;-72
2023/12/08 21:45:46;;;;;;;50.75;26.35;;;;;;;;;;10309195;28;20056;-72
2023/12/08 21:50:43;;;;;;;58.67;26.75;;;;;;;;;;10310035;28;20093;-72
2023/12/08 21:55:40;;;;;;;45.72;24.77;;;;;;;;;;10313117;28;20056;-72
2023/12/08 22:00:36;;;;;;;52.90;25.52;;;;;;;;;;10305693;28;20048;-72
2023/12/08 22:05:34;;;;;;;50.95;26.20;;;;;;;;;;10281701;28;20732;-73
2023/12/08 22:10:31;;;;;;;54.35;25.35;;;;;;;;;;10305648;28;20415;-74
2023/12/08 22:15:27;;;;;;;54.70;25.13;;;;;;;;;;10282894;28;20155;-77
2023/12/08 22:20:24;;;;;;;56.15;25.30;;;;;;;;;;10319199;28;20048;-70
2023/12/08 22:25:20;;;;;;;53.40;26.48;;;;;;;;;;10308242;28;20090;-71
2023/12/08 22:30:16;;;;;;;55.70;26.08;;;;;;;;;;10310278;28;20053;-69
2023/12/08 22:35:13;;;;;;;47.53;22.92;;;;;;;;;;10297528;28;20431;-70
2023/12/08 22:40:10;;;;;;;60.47;25.42;;;;;;;;;;10311000;28;20056;-69
2023/12/08 22:45:06;;;;;;;50.58;26.20;;;;;;;;;;10309468;28;20045;-69
2023/12/08 22:50:03;;;;;;;57.92;24.33;;;;;;;;;;10308106;28;20140;-69
2023/12/08 22:55:00;;;;;;;53.88;23.70;;;;;;;;;;10305621;28;20052;-70
2023/12/08 22:59:56;;;;;;;57.42;24.42;;;;;;;;;;10306704;28;20049;-72
2023/12/08 23:04:54;;;;;;;55.17;24.83;;;;;;;;;;10303615;28;20045;-72
2023/12/08 23:09:50;;;;;;;53.67;25.02;;;;;;;;;;10303990;28;20088;-70
2023/12/08 23:14:46;;;;;;;79.00;26.45;;;;;;;;;;10306209;28;20418;-71
2023/12/08 23:19:43;;;;;;;61.28;25.40;;;;;;;;;;10303172;28;20052;-69
2023/12/08 23:24:39;;;;;;;51.78;22.92;;;;;;;;;;10311016;28;20060;-69
2023/12/08 23:29:35;;;;;;;57.78;24.50;;;;;;;;;;10307968;28;20057;-70
2023/12/08 23:34:32;;;;;;;57.15;23.60;;;;;;;;;;10306225;28;20110;-71
2023/12/08 23:39:28;;;;;;;46.47;23.25;;;;;;;;;;10308039;28;20491;-72
2023/12/08 23:44:24;;;;;;;49.65;23.50;;;;;;;;;;10319390;28;20075;-72
2023/12/08 23:49:22;;;;;;;51.10;23.30;;;;;;;;;;10311986;28;20052;-72
2023/12/08 23:54:18;;;;;;;50.90;23.00;;;;;;;;;;10314544;28;20102;-73
2023/12/08 23:59:15;;;;;;;45.78;23.33;;;;;;;;;;10320417;28;20151;-69
